sensor_id;sensor_type;location;lat;lon;timestamp;P1;durP1;ratioP1;P2;durP2;ratioP2
41633;SDS011;37274;51.150;4.808;2022-07-05T00:01:13;1.10;;;0.40;;
41633;SDS011;37274;51.150;4.808;2022-07-05T00:03:40;0.47;;;0.43;;
41633;SDS011;37274;51.150;4.808;2022-07-05T00:06:07;1.20;;;0.52;;
41633;SDS011;37274;51.150;4.808;2022-07-05T00:08:34;0.43;;;0.43;;
41633;SDS011;37274;51.150;4.808;2022-07-05T00:11:01;1.85;;;0.60;;
41633;SDS011;37274;51.150;4.808;2022-07-05T00:13:30;1.88;;;0.60;;
41633;SDS011;37274;51.150;4.808;2022-07-05T00:15:57;1.27;;;0.50;;
41633;SDS011;37274;51.150;4.808;2022-07-05T00:18:24;0.40;;;0.30;;
41633;SDS011;37274;51.150;4.808;2022-07-05T00:20:51;0.45;;;0.40;;
41633;SDS011;37274;51.150;4.808;2022-07-05T00:23:18;0.75;;;0.40;;
41633;SDS011;37274;51.150;4.808;2022-07-05T00:25:44;0.32;;;0.25;;
41633;SDS011;37274;51.150;4.808;2022-07-05T00:28:11;0.30;;;0.30;;
41633;SDS011;37274;51.150;4.808;2022-07-05T00:30:40;0.73;;;0.43;;
41633;SDS011;37274;51.150;4.808;2022-07-05T00:33:07;1.58;;;0.40;;
41633;SDS011;37274;51.150;4.808;2022-07-05T00:35:34;1.02;;;0.50;;
41633;SDS011;37274;51.150;4.808;2022-07-05T00:38:00;0.75;;;0.30;;
41633;SDS011;37274;51.150;4.808;2022-07-05T00:40:27;0.88;;;0.45;;
41633;SDS011;37274;51.150;4.808;2022-07-05T00:42:54;0.60;;;0.40;;
41633;SDS011;37274;51.150;4.808;2022-07-05T00:45:21;1.95;;;0.30;;
41633;SDS011;37274;51.150;4.808;2022-07-05T00:47:48;1.63;;;0.30;;
41633;SDS011;37274;51.150;4.808;2022-07-05T00:50:15;0.82;;;0.45;;
41633;SDS011;37274;51.150;4.808;2022-07-05T00:52:41;1.05;;;0.32;;
41633;SDS011;37274;51.150;4.808;2022-07-05T00:55:08;0.90;;;0.65;;
41633;SDS011;37274;51.150;4.808;2022-07-05T00:57:35;0.60;;;0.30;;
41633;SDS011;37274;51.150;4.808;2022-07-05T01:00:03;0.40;;;0.40;;
41633;SDS011;37274;51.150;4.808;2022-07-05T01:02:31;0.40;;;0.30;;
41633;SDS011;37274;51.150;4.808;2022-07-05T01:04:58;0.47;;;0.40;;
41633;SDS011;37274;51.150;4.808;2022-07-05T01:07:25;0.47;;;0.40;;
41633;SDS011;37274;51.150;4.808;2022-07-05T01:09:52;0.25;;;0.25;;
41633;SDS011;37274;51.150;4.808;2022-07-05T01:12:19;0.63;;;0.50;;
41633;SDS011;37274;51.150;4.808;2022-07-05T01:14:45;2.53;;;0.30;;
41633;SDS011;37274;51.150;4.808;2022-07-05T01:17:13;0.60;;;0.40;;
41633;SDS011;37274;51.150;4.808;2022-07-05T01:19:41;0.40;;;0.40;;
41633;SDS011;37274;51.150;4.808;2022-07-05T01:22:11;0.40;;;0.40;;
41633;SDS011;37274;51.150;4.808;2022-07-05T01:27:15;0.50;;;0.47;;
41633;SDS011;37274;51.150;4.808;2022-07-05T01:29:43;0.40;;;0.32;;
41633;SDS011;37274;51.150;4.808;2022-07-05T01:32:10;0.60;;;0.35;;
41633;SDS011;37274;51.150;4.808;2022-07-05T01:34:38;0.65;;;0.47;;
41633;SDS011;37274;51.150;4.808;2022-07-05T01:37:06;0.68;;;0.30;;
41633;SDS011;37274;51.150;4.808;2022-07-05T01:39:33;0.60;;;0.40;;
41633;SDS011;37274;51.150;4.808;2022-07-05T01:42:00;0.43;;;0.40;;
41633;SDS011;37274;51.150;4.808;2022-07-05T01:44:27;0.40;;;0.40;;
41633;SDS011;37274;51.150;4.808;2022-07-05T01:46:58;0.68;;;0.35;;
41633;SDS011;37274;51.150;4.808;2022-07-05T01:49:31;0.57;;;0.40;;
41633;SDS011;37274;51.150;4.808;2022-07-05T01:52:04;0.68;;;0.30;;
41633;SDS011;37274;51.150;4.808;2022-07-05T01:54:35;0.30;;;0.30;;
41633;SDS011;37274;51.150;4.808;2022-07-05T01:57:03;0.38;;;0.30;;
41633;SDS011;37274;51.150;4.808;2022-07-05T01:59:34;0.68;;;0.30;;
41633;SDS011;37274;51.150;4.808;2022-07-05T02:02:02;0.55;;;0.50;;
41633;SDS011;37274;51.150;4.808;2022-07-05T02:04:29;1.15;;;0.40;;
41633;SDS011;37274;51.150;4.808;2022-07-05T02:06:56;0.40;;;0.40;;
41633;SDS011;37274;51.150;4.808;2022-07-05T02:09:23;0.75;;;0.40;;
41633;SDS011;37274;51.150;4.808;2022-07-05T02:11:50;0.63;;;0.40;;
41633;SDS011;37274;51.150;4.808;2022-07-05T02:14:17;0.68;;;0.50;;
41633;SDS011;37274;51.150;4.808;2022-07-05T02:16:44;0.47;;;0.40;;
41633;SDS011;37274;51.150;4.808;2022-07-05T02:19:12;0.40;;;0.40;;
41633;SDS011;37274;51.150;4.808;2022-07-05T02:21:39;0.30;;;0.30;;
41633;SDS011;37274;51.150;4.808;2022-07-05T02:24:06;0.70;;;0.40;;
41633;SDS011;37274;51.150;4.808;2022-07-05T02:26:33;0.57;;;0.50;;
41633;SDS011;37274;51.150;4.808;2022-07-05T02:29:01;0.85;;;0.50;;
41633;SDS011;37274;51.150;4.808;2022-07-05T02:31:29;0.65;;;0.50;;
41633;SDS011;37274;51.150;4.808;2022-07-05T02:33:57;0.57;;;0.40;;
41633;SDS011;37274;51.150;4.808;2022-07-05T02:36:24;0.47;;;0.40;;
41633;SDS011;37274;51.150;4.808;2022-07-05T02:38:51;0.52;;;0.50;;
41633;SDS011;37274;51.150;4.808;2022-07-05T02:41:18;0.65;;;0.50;;
41633;SDS011;37274;51.150;4.808;2022-07-05T02:43:45;0.47;;;0.20;;
41633;SDS011;37274;51.150;4.808;2022-07-05T02:46:11;1.23;;;0.40;;
41633;SDS011;37274;51.150;4.808;2022-07-05T02:48:38;0.40;;;0.30;;
41633;SDS011;37274;51.150;4.808;2022-07-05T02:51:05;0.77;;;0.60;;
41633;SDS011;37274;51.150;4.808;2022-07-05T02:53:32;0.47;;;0.40;;
41633;SDS011;37274;51.150;4.808;2022-07-05T02:56:00;0.50;;;0.50;;
41633;SDS011;37274;51.150;4.808;2022-07-05T02:58:27;0.50;;;0.50;;
41633;SDS011;37274;51.150;4.808;2022-07-05T03:00:54;1.52;;;0.60;;
41633;SDS011;37274;51.150;4.808;2022-07-05T03:03:21;0.93;;;0.50;;
41633;SDS011;37274;51.150;4.808;2022-07-05T03:05:48;0.45;;;0.40;;
41633;SDS011;37274;51.150;4.808;2022-07-05T03:08:15;0.68;;;0.43;;
41633;SDS011;37274;51.150;4.808;2022-07-05T03:10:41;0.43;;;0.43;;
41633;SDS011;37274;51.150;4.808;2022-07-05T03:13:08;0.55;;;0.30;;
41633;SDS011;37274;51.150;4.808;2022-07-05T03:15:35;0.40;;;0.40;;
41633;SDS011;37274;51.150;4.808;2022-07-05T03:18:02;0.95;;;0.55;;
41633;SDS011;37274;51.150;4.808;2022-07-05T03:20:29;0.93;;;0.50;;
41633;SDS011;37274;51.150;4.808;2022-07-05T03:22:55;0.30;;;0.30;;
41633;SDS011;37274;51.150;4.808;2022-07-05T03:25:22;1.10;;;0.43;;
41633;SDS011;37274;51.150;4.808;2022-07-05T03:27:49;0.63;;;0.63;;
41633;SDS011;37274;51.150;4.808;2022-07-05T03:30:16;0.40;;;0.40;;
41633;SDS011;37274;51.150;4.808;2022-07-05T03:32:42;0.45;;;0.45;;
41633;SDS011;37274;51.150;4.808;2022-07-05T03:35:09;0.50;;;0.30;;
41633;SDS011;37274;51.150;4.808;2022-07-05T03:37:36;1.15;;;0.57;;
41633;SDS011;37274;51.150;4.808;2022-07-05T03:40:03;1.27;;;0.32;;
41633;SDS011;37274;51.150;4.808;2022-07-05T03:42:30;0.30;;;0.30;;
41633;SDS011;37274;51.150;4.808;2022-07-05T03:44:58;0.52;;;0.40;;
41633;SDS011;37274;51.150;4.808;2022-07-05T03:47:25;1.08;;;0.50;;
41633;SDS011;37274;51.150;4.808;2022-07-05T03:49:51;0.63;;;0.50;;
41633;SDS011;37274;51.150;4.808;2022-07-05T03:52:20;0.50;;;0.50;;
41633;SDS011;37274;51.150;4.808;2022-07-05T03:54:51;0.32;;;0.32;;
41633;SDS011;37274;51.150;4.808;2022-07-05T03:57:18;1.23;;;0.40;;
41633;SDS011;37274;51.150;4.808;2022-07-05T03:59:45;0.80;;;0.40;;
41633;SDS011;37274;51.150;4.808;2022-07-05T04:02:13;0.98;;;0.40;;
41633;SDS011;37274;51.150;4.808;2022-07-05T04:04:40;0.30;;;0.30;;
41633;SDS011;37274;51.150;4.808;2022-07-05T04:07:06;0.85;;;0.70;;
41633;SDS011;37274;51.150;4.808;2022-07-05T04:09:33;1.13;;;0.50;;
41633;SDS011;37274;51.150;4.808;2022-07-05T04:12:00;0.30;;;0.30;;
41633;SDS011;37274;51.150;4.808;2022-07-05T04:14:27;0.60;;;0.45;;
41633;SDS011;37274;51.150;4.808;2022-07-05T04:16:54;0.73;;;0.60;;
41633;SDS011;37274;51.150;4.808;2022-07-05T04:19:23;0.70;;;0.45;;
41633;SDS011;37274;51.150;4.808;2022-07-05T04:21:50;0.60;;;0.60;;
41633;SDS011;37274;51.150;4.808;2022-07-05T04:24:17;1.85;;;0.40;;
41633;SDS011;37274;51.150;4.808;2022-07-05T04:26:43;0.70;;;0.40;;
41633;SDS011;37274;51.150;4.808;2022-07-05T04:29:10;0.98;;;0.55;;
41633;SDS011;37274;51.150;4.808;2022-07-05T04:31:37;0.90;;;0.60;;
41633;SDS011;37274;51.150;4.808;2022-07-05T04:34:04;0.50;;;0.50;;
41633;SDS011;37274;51.150;4.808;2022-07-05T04:36:31;0.43;;;0.40;;
41633;SDS011;37274;51.150;4.808;2022-07-05T04:38:57;1.35;;;0.30;;
41633;SDS011;37274;51.150;4.808;2022-07-05T04:41:24;0.63;;;0.45;;
41633;SDS011;37274;51.150;4.808;2022-07-05T04:43:51;0.70;;;0.47;;
41633;SDS011;37274;51.150;4.808;2022-07-05T04:46:18;0.90;;;0.60;;
41633;SDS011;37274;51.150;4.808;2022-07-05T04:48:45;1.13;;;0.43;;
41633;SDS011;37274;51.150;4.808;2022-07-05T04:51:11;0.93;;;0.88;;
41633;SDS011;37274;51.150;4.808;2022-07-05T04:53:38;0.63;;;0.55;;
41633;SDS011;37274;51.150;4.808;2022-07-05T04:56:05;0.73;;;0.40;;
41633;SDS011;37274;51.150;4.808;2022-07-05T04:58:32;0.35;;;0.35;;
41633;SDS011;37274;51.150;4.808;2022-07-05T05:00:59;0.70;;;0.60;;
41633;SDS011;37274;51.150;4.808;2022-07-05T05:03:26;0.35;;;0.32;;
41633;SDS011;37274;51.150;4.808;2022-07-05T05:05:53;1.00;;;0.38;;
41633;SDS011;37274;51.150;4.808;2022-07-05T05:08:20;0.65;;;0.47;;
41633;SDS011;37274;51.150;4.808;2022-07-05T05:10:46;0.80;;;0.65;;
41633;SDS011;37274;51.150;4.808;2022-07-05T05:13:13;0.90;;;0.65;;
41633;SDS011;37274;51.150;4.808;2022-07-05T05:15:40;0.68;;;0.40;;
41633;SDS011;37274;51.150;4.808;2022-07-05T05:18:07;0.40;;;0.40;;
41633;SDS011;37274;51.150;4.808;2022-07-05T05:20:33;1.05;;;0.50;;
41633;SDS011;37274;51.150;4.808;2022-07-05T05:23:05;3.95;;;1.02;;
41633;SDS011;37274;51.150;4.808;2022-07-05T05:25:32;4.30;;;2.60;;
41633;SDS011;37274;51.150;4.808;2022-07-05T05:28:01;3.88;;;3.40;;
41633;SDS011;37274;51.150;4.808;2022-07-05T05:30:28;6.32;;;3.22;;
41633;SDS011;37274;51.150;4.808;2022-07-05T05:32:55;3.35;;;3.05;;
41633;SDS011;37274;51.150;4.808;2022-07-05T05:35:22;4.88;;;3.35;;
41633;SDS011;37274;51.150;4.808;2022-07-05T05:37:53;5.03;;;4.07;;
41633;SDS011;37274;51.150;4.808;2022-07-05T05:40:21;5.15;;;3.15;;
41633;SDS011;37274;51.150;4.808;2022-07-05T05:42:49;4.13;;;3.45;;
41633;SDS011;37274;51.150;4.808;2022-07-05T05:45:16;4.28;;;3.10;;
41633;SDS011;37274;51.150;4.808;2022-07-05T05:47:47;4.22;;;2.92;;
41633;SDS011;37274;51.150;4.808;2022-07-05T05:50:21;4.95;;;3.35;;
41633;SDS011;37274;51.150;4.808;2022-07-05T05:52:59;5.32;;;3.60;;
41633;SDS011;37274;51.150;4.808;2022-07-05T05:55:26;3.90;;;3.28;;
41633;SDS011;37274;51.150;4.808;2022-07-05T05:57:54;3.33;;;2.90;;
41633;SDS011;37274;51.150;4.808;2022-07-05T06:00:21;5.28;;;3.55;;
41633;SDS011;37274;51.150;4.808;2022-07-05T06:02:49;4.93;;;3.00;;
41633;SDS011;37274;51.150;4.808;2022-07-05T06:05:17;6.90;;;3.00;;
41633;SDS011;37274;51.150;4.808;2022-07-05T06:07:48;5.45;;;2.40;;
41633;SDS011;37274;51.150;4.808;2022-07-05T06:10:16;4.95;;;2.10;;
41633;SDS011;37274;51.150;4.808;2022-07-05T06:12:44;3.92;;;2.00;;
41633;SDS011;37274;51.150;4.808;2022-07-05T06:15:11;2.33;;;1.80;;
41633;SDS011;37274;51.150;4.808;2022-07-05T06:17:38;2.70;;;1.65;;
41633;SDS011;37274;51.150;4.808;2022-07-05T06:20:06;2.72;;;1.55;;
41633;SDS011;37274;51.150;4.808;2022-07-05T06:22:37;3.53;;;1.50;;
41633;SDS011;37274;51.150;4.808;2022-07-05T06:25:04;2.15;;;1.33;;
41633;SDS011;37274;51.150;4.808;2022-07-05T06:27:50;10.52;;;2.22;;
41633;SDS011;37274;51.150;4.808;2022-07-05T06:30:19;1.95;;;1.38;;
41633;SDS011;37274;51.150;4.808;2022-07-05T06:32:47;1.77;;;0.90;;
41633;SDS011;37274;51.150;4.808;2022-07-05T06:35:15;4.50;;;1.10;;
41633;SDS011;37274;51.150;4.808;2022-07-05T06:37:54;3.95;;;1.02;;
41633;SDS011;37274;51.150;4.808;2022-07-05T06:40:22;4.28;;;1.13;;
41633;SDS011;37274;51.150;4.808;2022-07-05T06:42:53;10.13;;;1.52;;
41633;SDS011;37274;51.150;4.808;2022-07-05T06:45:21;3.97;;;1.23;;
41633;SDS011;37274;51.150;4.808;2022-07-05T06:50:26;2.13;;;0.95;;
41633;SDS011;37274;51.150;4.808;2022-07-05T06:52:54;3.08;;;1.17;;
41633;SDS011;37274;51.150;4.808;2022-07-05T06:55:21;4.63;;;1.23;;
41633;SDS011;37274;51.150;4.808;2022-07-05T06:57:48;5.25;;;1.55;;
41633;SDS011;37274;51.150;4.808;2022-07-05T07:00:35;2.67;;;1.52;;
41633;SDS011;37274;51.150;4.808;2022-07-05T07:03:22;7.57;;;1.20;;
41633;SDS011;37274;51.150;4.808;2022-07-05T07:06:09;1.85;;;1.02;;
41633;SDS011;37274;51.150;4.808;2022-07-05T07:08:36;2.25;;;1.00;;
41633;SDS011;37274;51.150;4.808;2022-07-05T07:11:21;4.05;;;1.30;;
41633;SDS011;37274;51.150;4.808;2022-07-05T07:13:47;2.78;;;0.98;;
41633;SDS011;37274;51.150;4.808;2022-07-05T07:16:14;5.05;;;1.42;;
41633;SDS011;37274;51.150;4.808;2022-07-05T07:18:41;4.35;;;1.30;;
41633;SDS011;37274;51.150;4.808;2022-07-05T07:21:28;2.83;;;1.10;;
41633;SDS011;37274;51.150;4.808;2022-07-05T07:23:54;3.05;;;1.60;;
41633;SDS011;37274;51.150;4.808;2022-07-05T07:26:21;3.10;;;1.10;;
41633;SDS011;37274;51.150;4.808;2022-07-05T07:28:48;2.03;;;1.10;;
41633;SDS011;37274;51.150;4.808;2022-07-05T07:31:15;1.50;;;0.80;;
41633;SDS011;37274;51.150;4.808;2022-07-05T07:33:41;2.28;;;0.70;;
41633;SDS011;37274;51.150;4.808;2022-07-05T07:36:10;1.38;;;0.90;;
41633;SDS011;37274;51.150;4.808;2022-07-05T07:38:40;1.25;;;0.82;;
41633;SDS011;37274;51.150;4.808;2022-07-05T07:41:08;1.63;;;0.90;;
41633;SDS011;37274;51.150;4.808;2022-07-05T07:43:35;1.95;;;0.82;;
41633;SDS011;37274;51.150;4.808;2022-07-05T07:46:01;2.78;;;0.98;;
41633;SDS011;37274;51.150;4.808;2022-07-05T07:48:28;2.08;;;0.90;;
41633;SDS011;37274;51.150;4.808;2022-07-05T07:50:55;1.30;;;0.70;;
41633;SDS011;37274;51.150;4.808;2022-07-05T07:53:22;1.80;;;0.82;;
41633;SDS011;37274;51.150;4.808;2022-07-05T07:55:49;1.63;;;0.90;;
41633;SDS011;37274;51.150;4.808;2022-07-05T07:58:16;1.95;;;0.80;;
41633;SDS011;37274;51.150;4.808;2022-07-05T08:00:43;1.80;;;0.90;;
41633;SDS011;37274;51.150;4.808;2022-07-05T08:03:10;0.82;;;0.68;;
41633;SDS011;37274;51.150;4.808;2022-07-05T08:05:36;3.28;;;0.80;;
41633;SDS011;37274;51.150;4.808;2022-07-05T08:08:03;1.77;;;0.60;;
41633;SDS011;37274;51.150;4.808;2022-07-05T08:10:30;2.13;;;0.70;;
41633;SDS011;37274;51.150;4.808;2022-07-05T08:12:57;1.92;;;0.70;;
41633;SDS011;37274;51.150;4.808;2022-07-05T08:15:24;1.08;;;0.90;;
41633;SDS011;37274;51.150;4.808;2022-07-05T08:17:51;1.60;;;0.82;;
41633;SDS011;37274;51.150;4.808;2022-07-05T08:20:36;3.25;;;0.70;;
41633;SDS011;37274;51.150;4.808;2022-07-05T08:23:21;1.67;;;0.80;;
41633;SDS011;37274;51.150;4.808;2022-07-05T08:25:55;2.85;;;1.10;;
41633;SDS011;37274;51.150;4.808;2022-07-05T08:28:21;1.60;;;0.93;;
41633;SDS011;37274;51.150;4.808;2022-07-05T08:30:48;4.53;;;1.27;;
41633;SDS011;37274;51.150;4.808;2022-07-05T08:33:15;1.13;;;0.65;;
41633;SDS011;37274;51.150;4.808;2022-07-05T08:35:42;1.58;;;0.60;;
41633;SDS011;37274;51.150;4.808;2022-07-05T08:38:08;1.85;;;0.50;;
41633;SDS011;37274;51.150;4.808;2022-07-05T08:40:37;2.35;;;0.77;;
41633;SDS011;37274;51.150;4.808;2022-07-05T08:43:04;2.20;;;0.60;;
41633;SDS011;37274;51.150;4.808;2022-07-05T08:45:33;1.05;;;0.55;;
41633;SDS011;37274;51.150;4.808;2022-07-05T08:48:00;1.65;;;0.60;;
41633;SDS011;37274;51.150;4.808;2022-07-05T08:50:27;1.13;;;0.82;;
41633;SDS011;37274;51.150;4.808;2022-07-05T08:52:54;1.67;;;0.75;;
41633;SDS011;37274;51.150;4.808;2022-07-05T08:55:21;1.92;;;0.40;;
41633;SDS011;37274;51.150;4.808;2022-07-05T08:57:48;1.40;;;0.50;;
41633;SDS011;37274;51.150;4.808;2022-07-05T09:00:15;1.20;;;0.50;;
41633;SDS011;37274;51.150;4.808;2022-07-05T09:02:43;0.95;;;0.40;;
41633;SDS011;37274;51.150;4.808;2022-07-05T09:05:12;1.08;;;0.50;;
41633;SDS011;37274;51.150;4.808;2022-07-05T09:07:39;1.65;;;0.60;;
41633;SDS011;37274;51.150;4.808;2022-07-05T09:10:11;0.88;;;0.43;;
41633;SDS011;37274;51.150;4.808;2022-07-05T09:12:38;0.98;;;0.50;;
41633;SDS011;37274;51.150;4.808;2022-07-05T09:15:05;1.98;;;0.50;;
41633;SDS011;37274;51.150;4.808;2022-07-05T09:17:32;1.33;;;0.70;;
41633;SDS011;37274;51.150;4.808;2022-07-05T09:25:29;2.47;;;0.50;;
41633;SDS011;37274;51.150;4.808;2022-07-05T09:27:58;1.33;;;0.60;;
41633;SDS011;37274;51.150;4.808;2022-07-05T09:30:33;1.15;;;0.57;;
41633;SDS011;37274;51.150;4.808;2022-07-05T09:33:09;1.73;;;0.40;;
41633;SDS011;37274;51.150;4.808;2022-07-05T09:35:39;0.80;;;0.43;;
41633;SDS011;37274;51.150;4.808;2022-07-05T09:38:19;3.83;;;0.70;;
41633;SDS011;37274;51.150;4.808;2022-07-05T09:40:49;1.10;;;0.60;;
41633;SDS011;37274;51.150;4.808;2022-07-05T09:43:19;2.53;;;0.70;;
41633;SDS011;37274;51.150;4.808;2022-07-05T09:46:04;2.00;;;0.45;;
41633;SDS011;37274;51.150;4.808;2022-07-05T09:48:32;2.38;;;0.80;;
41633;SDS011;37274;51.150;4.808;2022-07-05T09:51:09;1.70;;;0.60;;
41633;SDS011;37274;51.150;4.808;2022-07-05T09:53:59;0.88;;;0.50;;
41633;SDS011;37274;51.150;4.808;2022-07-05T09:56:42;0.63;;;0.40;;
41633;SDS011;37274;51.150;4.808;2022-07-05T09:59:14;1.63;;;0.77;;
41633;SDS011;37274;51.150;4.808;2022-07-05T10:01:42;0.68;;;0.50;;
41633;SDS011;37274;51.150;4.808;2022-07-05T10:04:09;1.30;;;0.50;;
41633;SDS011;37274;51.150;4.808;2022-07-05T10:06:36;1.10;;;0.50;;
41633;SDS011;37274;51.150;4.808;2022-07-05T10:09:03;1.45;;;0.50;;
41633;SDS011;37274;51.150;4.808;2022-07-05T10:11:31;2.08;;;0.57;;
41633;SDS011;37274;51.150;4.808;2022-07-05T10:13:58;0.88;;;0.60;;
41633;SDS011;37274;51.150;4.808;2022-07-05T10:16:25;1.85;;;0.88;;
41633;SDS011;37274;51.150;4.808;2022-07-05T10:18:53;0.75;;;0.43;;
41633;SDS011;37274;51.150;4.808;2022-07-05T10:21:21;1.48;;;0.60;;
41633;SDS011;37274;51.150;4.808;2022-07-05T10:23:50;0.85;;;0.50;;
41633;SDS011;37274;51.150;4.808;2022-07-05T10:26:20;2.22;;;0.75;;
41633;SDS011;37274;51.150;4.808;2022-07-05T10:28:52;1.00;;;0.52;;
41633;SDS011;37274;51.150;4.808;2022-07-05T10:31:27;1.15;;;0.52;;
41633;SDS011;37274;51.150;4.808;2022-07-05T10:33:56;2.72;;;0.73;;
41633;SDS011;37274;51.150;4.808;2022-07-05T10:36:24;1.55;;;0.77;;
41633;SDS011;37274;51.150;4.808;2022-07-05T10:38:51;1.50;;;0.52;;
41633;SDS011;37274;51.150;4.808;2022-07-05T10:41:20;1.30;;;0.70;;
41633;SDS011;37274;51.150;4.808;2022-07-05T10:43:53;1.73;;;0.55;;
41633;SDS011;37274;51.150;4.808;2022-07-05T10:46:33;0.82;;;0.50;;
41633;SDS011;37274;51.150;4.808;2022-07-05T10:49:16;2.08;;;0.70;;
41633;SDS011;37274;51.150;4.808;2022-07-05T10:51:46;0.77;;;0.60;;
41633;SDS011;37274;51.150;4.808;2022-07-05T10:54:19;1.27;;;0.55;;
41633;SDS011;37274;51.150;4.808;2022-07-05T11:00:06;1.67;;;0.50;;
41633;SDS011;37274;51.150;4.808;2022-07-05T11:02:33;1.98;;;0.73;;
41633;SDS011;37274;51.150;4.808;2022-07-05T11:05:00;1.48;;;0.80;;
41633;SDS011;37274;51.150;4.808;2022-07-05T11:10:25;2.47;;;0.50;;
41633;SDS011;37274;51.150;4.808;2022-07-05T11:12:52;0.85;;;0.40;;
41633;SDS011;37274;51.150;4.808;2022-07-05T11:15:19;0.45;;;0.40;;
41633;SDS011;37274;51.150;4.808;2022-07-05T11:17:46;1.38;;;0.70;;
41633;SDS011;37274;51.150;4.808;2022-07-05T11:23:03;0.93;;;0.60;;
41633;SDS011;37274;51.150;4.808;2022-07-05T11:25:37;4.25;;;0.45;;
41633;SDS011;37274;51.150;4.808;2022-07-05T11:30:49;2.78;;;0.60;;
41633;SDS011;37274;51.150;4.808;2022-07-05T11:34:00;1.20;;;0.50;;
41633;SDS011;37274;51.150;4.808;2022-07-05T11:36:24;0.68;;;0.40;;
41633;SDS011;37274;51.150;4.808;2022-07-05T11:41:44;1.92;;;0.40;;
41633;SDS011;37274;51.150;4.808;2022-07-05T11:44:13;1.10;;;0.70;;
41633;SDS011;37274;51.150;4.808;2022-07-05T11:46:43;0.80;;;0.60;;
41633;SDS011;37274;51.150;4.808;2022-07-05T11:49:23;1.13;;;0.45;;
41633;SDS011;37274;51.150;4.808;2022-07-05T11:51:56;0.65;;;0.45;;
41633;SDS011;37274;51.150;4.808;2022-07-05T11:54:27;0.70;;;0.57;;
41633;SDS011;37274;51.150;4.808;2022-07-05T11:56:59;2.13;;;0.73;;
41633;SDS011;37274;51.150;4.808;2022-07-05T11:59:26;1.13;;;0.82;;
41633;SDS011;37274;51.150;4.808;2022-07-05T12:01:53;0.88;;;0.50;;
41633;SDS011;37274;51.150;4.808;2022-07-05T12:04:21;1.20;;;0.63;;
41633;SDS011;37274;51.150;4.808;2022-07-05T12:06:52;0.63;;;0.50;;
41633;SDS011;37274;51.150;4.808;2022-07-05T12:09:23;0.82;;;0.38;;
41633;SDS011;37274;51.150;4.808;2022-07-05T12:11:54;0.60;;;0.43;;
41633;SDS011;37274;51.150;4.808;2022-07-05T12:14:47;1.27;;;1.15;;
41633;SDS011;37274;51.150;4.808;2022-07-05T12:17:16;1.25;;;0.50;;
41633;SDS011;37274;51.150;4.808;2022-07-05T12:19:50;0.88;;;0.85;;
41633;SDS011;37274;51.150;4.808;2022-07-05T12:22:20;2.67;;;0.63;;
41633;SDS011;37274;51.150;4.808;2022-07-05T12:25:03;1.27;;;0.70;;
41633;SDS011;37274;51.150;4.808;2022-07-05T12:27:32;0.80;;;0.60;;
41633;SDS011;37274;51.150;4.808;2022-07-05T12:30:00;1.05;;;0.50;;
41633;SDS011;37274;51.150;4.808;2022-07-05T12:32:30;2.30;;;0.95;;
41633;SDS011;37274;51.150;4.808;2022-07-05T12:34:58;0.95;;;0.60;;
41633;SDS011;37274;51.150;4.808;2022-07-05T12:37:31;1.75;;;0.40;;
41633;SDS011;37274;51.150;4.808;2022-07-05T12:40:04;0.63;;;0.30;;
41633;SDS011;37274;51.150;4.808;2022-07-05T12:42:36;0.30;;;0.30;;
41633;SDS011;37274;51.150;4.808;2022-07-05T12:50:24;0.52;;;0.47;;
41633;SDS011;37274;51.150;4.808;2022-07-05T12:53:16;0.90;;;0.50;;
41633;SDS011;37274;51.150;4.808;2022-07-05T12:58:55;0.98;;;0.50;;
41633;SDS011;37274;51.150;4.808;2022-07-05T13:01:30;1.35;;;0.43;;
41633;SDS011;37274;51.150;4.808;2022-07-05T13:03:59;0.88;;;0.45;;
41633;SDS011;37274;51.150;4.808;2022-07-05T13:06:39;0.68;;;0.50;;
41633;SDS011;37274;51.150;4.808;2022-07-05T13:09:09;1.23;;;0.50;;
41633;SDS011;37274;51.150;4.808;2022-07-05T13:11:36;1.23;;;0.40;;
41633;SDS011;37274;51.150;4.808;2022-07-05T13:14:03;0.60;;;0.30;;
41633;SDS011;37274;51.150;4.808;2022-07-05T13:16:30;0.50;;;0.50;;
41633;SDS011;37274;51.150;4.808;2022-07-05T13:19:07;1.50;;;0.32;;
41633;SDS011;37274;51.150;4.808;2022-07-05T13:21:34;0.85;;;0.40;;
41633;SDS011;37274;51.150;4.808;2022-07-05T13:24:02;1.95;;;0.40;;
41633;SDS011;37274;51.150;4.808;2022-07-05T13:26:29;1.25;;;0.60;;
41633;SDS011;37274;51.150;4.808;2022-07-05T13:28:56;1.23;;;0.50;;
41633;SDS011;37274;51.150;4.808;2022-07-05T13:31:23;1.08;;;0.38;;
41633;SDS011;37274;51.150;4.808;2022-07-05T13:33:50;1.27;;;0.40;;
41633;SDS011;37274;51.150;4.808;2022-07-05T13:36:16;1.75;;;0.40;;
41633;SDS011;37274;51.150;4.808;2022-07-05T13:38:43;2.40;;;0.40;;
41633;SDS011;37274;51.150;4.808;2022-07-05T13:41:10;0.73;;;0.40;;
41633;SDS011;37274;51.150;4.808;2022-07-05T13:43:37;2.28;;;0.52;;
41633;SDS011;37274;51.150;4.808;2022-07-05T13:46:05;1.30;;;0.43;;
41633;SDS011;37274;51.150;4.808;2022-07-05T13:48:32;3.83;;;0.73;;
41633;SDS011;37274;51.150;4.808;2022-07-05T13:51:00;0.25;;;0.25;;
41633;SDS011;37274;51.150;4.808;2022-07-05T13:53:26;0.50;;;0.30;;
41633;SDS011;37274;51.150;4.808;2022-07-05T13:55:53;1.48;;;0.30;;
41633;SDS011;37274;51.150;4.808;2022-07-05T13:58:20;0.50;;;0.40;;
41633;SDS011;37274;51.150;4.808;2022-07-05T14:00:47;0.70;;;0.40;;
41633;SDS011;37274;51.150;4.808;2022-07-05T14:03:14;0.85;;;0.50;;
41633;SDS011;37274;51.150;4.808;2022-07-05T14:05:42;0.55;;;0.40;;
41633;SDS011;37274;51.150;4.808;2022-07-05T14:08:12;2.05;;;0.47;;
41633;SDS011;37274;51.150;4.808;2022-07-05T14:10:39;2.03;;;0.50;;
41633;SDS011;37274;51.150;4.808;2022-07-05T14:13:06;0.52;;;0.40;;
41633;SDS011;37274;51.150;4.808;2022-07-05T14:15:32;0.43;;;0.30;;
41633;SDS011;37274;51.150;4.808;2022-07-05T14:17:59;1.67;;;0.82;;
41633;SDS011;37274;51.150;4.808;2022-07-05T14:20:28;1.50;;;0.45;;
41633;SDS011;37274;51.150;4.808;2022-07-05T14:22:55;0.98;;;0.52;;
41633;SDS011;37274;51.150;4.808;2022-07-05T14:25:22;1.80;;;0.57;;
41633;SDS011;37274;51.150;4.808;2022-07-05T14:27:49;0.98;;;0.55;;
41633;SDS011;37274;51.150;4.808;2022-07-05T14:30:15;1.40;;;0.52;;
41633;SDS011;37274;51.150;4.808;2022-07-05T14:32:43;0.35;;;0.30;;
41633;SDS011;37274;51.150;4.808;2022-07-05T14:35:15;0.60;;;0.60;;
41633;SDS011;37274;51.150;4.808;2022-07-05T14:37:42;1.02;;;0.40;;
41633;SDS011;37274;51.150;4.808;2022-07-05T14:40:09;2.00;;;0.40;;
41633;SDS011;37274;51.150;4.808;2022-07-05T14:42:36;1.20;;;0.40;;
41633;SDS011;37274;51.150;4.808;2022-07-05T14:45:03;1.25;;;0.40;;
41633;SDS011;37274;51.150;4.808;2022-07-05T14:47:30;0.50;;;0.30;;
41633;SDS011;37274;51.150;4.808;2022-07-05T14:49:57;1.27;;;0.70;;
41633;SDS011;37274;51.150;4.808;2022-07-05T14:52:23;1.38;;;0.40;;
41633;SDS011;37274;51.150;4.808;2022-07-05T14:54:50;2.45;;;0.47;;
41633;SDS011;37274;51.150;4.808;2022-07-05T14:57:17;0.52;;;0.22;;
41633;SDS011;37274;51.150;4.808;2022-07-05T14:59:44;2.38;;;0.40;;
41633;SDS011;37274;51.150;4.808;2022-07-05T15:02:10;0.43;;;0.40;;
41633;SDS011;37274;51.150;4.808;2022-07-05T15:04:38;1.10;;;0.50;;
41633;SDS011;37274;51.150;4.808;2022-07-05T15:07:05;1.40;;;0.47;;
41633;SDS011;37274;51.150;4.808;2022-07-05T15:09:32;1.02;;;0.50;;
41633;SDS011;37274;51.150;4.808;2022-07-05T15:11:58;2.65;;;0.30;;
41633;SDS011;37274;51.150;4.808;2022-07-05T15:14:25;0.40;;;0.40;;
41633;SDS011;37274;51.150;4.808;2022-07-05T15:16:55;0.30;;;0.30;;
41633;SDS011;37274;51.150;4.808;2022-07-05T15:19:22;1.60;;;0.57;;
41633;SDS011;37274;51.150;4.808;2022-07-05T15:21:49;3.10;;;0.50;;
41633;SDS011;37274;51.150;4.808;2022-07-05T15:24:16;3.33;;;0.65;;
41633;SDS011;37274;51.150;4.808;2022-07-05T15:26:43;1.95;;;0.28;;
41633;SDS011;37274;51.150;4.808;2022-07-05T15:29:10;1.75;;;0.40;;
41633;SDS011;37274;51.150;4.808;2022-07-05T15:31:37;0.73;;;0.40;;